Time;durP1;ratioP1;P1;durP2;ratioP2;P2;SDS_P1;SDS_P2;PMS_P1;PMS_P2;Temp;Humidity;BMP_temperature;BMP_pressure;BME280_temperature;BME280_humidity;BME280_pressure;Samples;Min_cycle;Max_cycle;Signal;HPM_P1;HPM_P2
2022/07/22 00:01:28;;;;;;;5.63;4.20;;;32.00;69.20;;;;;;5137877;27;20939;-63
2022/07/22 00:04:01;;;;;;;3.70;3.40;;;32.00;71.30;;;;;;5142926;27;20792;-63
2022/07/22 00:06:33;;;;;;;4.13;3.43;;;32.00;69.30;;;;;;5136228;27;21012;-62
2022/07/22 00:09:04;;;;;;;3.73;3.43;;;31.80;70.90;;;;;;5127184;27;20951;-62
2022/07/22 00:11:35;;;;;;;3.90;3.60;;;31.80;68.90;;;;;;5137196;27;20463;-62
2022/07/22 00:14:07;;;;;;;3.80;3.50;;;31.80;71.90;;;;;;5132384;27;20480;-62
2022/07/22 00:16:37;;;;;;;4.33;3.50;;;32.00;69.60;;;;;;5134023;27;20440;-62
2022/07/22 00:19:10;;;;;;;3.80;3.50;;;31.90;70.50;;;;;;5130604;27;20495;-63
2022/07/22 00:21:41;;;;;;;3.30;3.00;;;31.80;70.70;;;;;;5129120;27;20451;-64
2022/07/22 00:24:12;;;;;;;4.10;3.80;;;31.80;71.20;;;;;;5139283;27;20451;-61
2022/07/22 00:26:44;;;;;;;3.60;3.30;;;31.80;70.60;;;;;;5142029;27;20577;-62
2022/07/22 00:29:14;;;;;;;3.77;3.47;;;31.80;71.80;;;;;;5148965;27;20451;-62
2022/07/22 00:31:45;;;;;;;3.07;2.87;;;31.90;69.80;;;;;;5147368;27;20447;-63
2022/07/22 00:34:18;;;;;;;3.30;3.00;;;31.80;70.70;;;;;;5148518;27;20470;-61
2022/07/22 00:36:49;;;;;;;3.30;3.07;;;31.80;71.10;;;;;;5150242;27;20448;-61
2022/07/22 00:39:21;;;;;;;4.70;2.83;;;31.60;71.90;;;;;;5146191;27;20485;-63
2022/07/22 00:41:52;;;;;;;3.60;3.10;;;31.40;71.70;;;;;;5145715;27;20468;-62
2022/07/22 00:44:23;;;;;;;4.10;3.50;;;31.30;71.80;;;;;;5143901;27;20514;-62
2022/07/22 00:46:55;;;;;;;3.90;3.23;;;31.20;72.00;;;;;;5144103;27;20443;-63
2022/07/22 00:49:29;;;;;;;3.13;2.93;;;31.10;71.70;;;;;;5144702;27;20455;-63
2022/07/22 00:51:59;;;;;;;3.73;3.43;;;30.80;72.60;;;;;;5145950;27;20452;-61
2022/07/22 00:54:30;;;;;;;3.53;3.17;;;30.70;73.10;;;;;;5142843;27;20525;-62
2022/07/22 00:57:01;;;;;;;3.10;2.90;;;30.60;74.20;;;;;;5150095;27;20461;-62
2022/07/22 00:59:33;;;;;;;3.20;3.00;;;30.50;74.90;;;;;;5144732;27;20487;-61
2022/07/22 01:02:04;;;;;;;3.57;2.77;;;30.40;74.70;;;;;;5150154;27;20454;-62
2022/07/22 01:04:36;;;;;;;3.67;3.37;;;30.30;74.90;;;;;;5141000;27;20507;-63
2022/07/22 01:07:08;;;;;;;3.60;3.30;;;30.20;75.10;;;;;;5134154;27;20559;-63
2022/07/22 01:09:39;;;;;;;3.10;2.80;;;30.10;76.20;;;;;;5151928;27;20891;-63
2022/07/22 01:12:09;;;;;;;3.10;2.77;;;30.10;76.50;;;;;;5148342;27;20445;-64
2022/07/22 01:14:41;;;;;;;2.70;2.50;;;29.90;76.40;;;;;;5146448;27;20448;-63
2022/07/22 01:17:12;;;;;;;2.90;2.70;;;29.80;77.40;;;;;;5138022;27;20463;-63
2022/07/22 01:19:45;;;;;;;2.90;2.70;;;29.70;78.00;;;;;;5139901;27;20500;-63
2022/07/22 01:22:17;;;;;;;2.90;2.70;;;29.60;78.20;;;;;;5136738;27;20455;-63
2022/07/22 01:24:48;;;;;;;2.70;2.47;;;29.40;78.40;;;;;;5148745;27;20464;-63
2022/07/22 01:27:19;;;;;;;2.63;2.43;;;29.40;78.60;;;;;;5136989;27;21255;-63
2022/07/22 01:29:50;;;;;;;3.00;2.57;;;29.30;78.90;;;;;;5145712;27;20457;-62
2022/07/22 01:32:23;;;;;;;3.10;2.80;;;29.30;79.20;;;;;;5136374;27;20755;-63
2022/07/22 01:34:54;;;;;;;3.53;2.23;;;29.10;80.10;;;;;;5146840;27;20824;-63
2022/07/22 01:37:27;;;;;;;3.30;2.40;;;29.00;80.80;;;;;;5134674;27;20468;-64
2022/07/22 01:39:59;;;;;;;3.23;2.23;;;28.90;81.10;;;;;;5136142;27;20526;-63
2022/07/22 01:42:33;;;;;;;2.40;2.07;;;28.80;81.80;;;;;;5128383;27;20455;-63
2022/07/22 01:45:07;;;;;;;2.53;2.33;;;28.70;82.80;;;;;;5146030;27;20440;-63
2022/07/22 01:47:38;;;;;;;2.63;2.43;;;28.60;82.70;;;;;;5142186;27;20462;-63
2022/07/22 01:50:14;;;;;;;3.30;2.67;;;28.60;82.10;;;;;;5142669;27;20454;-61
2022/07/22 01:52:49;;;;;;;2.73;2.40;;;28.40;82.50;;;;;;5128881;27;20451;-61
2022/07/22 01:55:20;;;;;;;2.93;2.73;;;28.20;82.80;;;;;;5135163;27;20465;-62
2022/07/22 01:57:51;;;;;;;3.20;3.00;;;28.20;83.70;;;;;;5135340;27;20466;-62
2022/07/22 02:00:22;;;;;;;2.80;2.60;;;28.10;83.90;;;;;;5145539;27;20493;-62
2022/07/22 02:02:53;;;;;;;2.70;2.17;;;28.10;84.70;;;;;;5136557;27;20487;-62
2022/07/22 02:05:24;;;;;;;2.40;2.20;;;28.10;83.60;;;;;;5137147;27;20457;-62
2022/07/22 02:08:01;;;;;;;2.57;2.37;;;28.00;84.00;;;;;;5132191;27;20883;-62
2022/07/22 02:10:32;;;;;;;2.70;2.50;;;28.00;84.60;;;;;;5146682;27;20774;-63
2022/07/22 02:13:04;;;;;;;2.70;2.50;;;27.90;84.90;;;;;;5137942;27;20485;-62
2022/07/22 02:15:37;;;;;;;4.03;2.83;;;27.80;84.10;;;;;;5147720;27;20476;-62
2022/07/22 02:18:17;;;;;;;2.80;2.40;;;27.60;85.40;;;;;;5142636;27;20445;-62
2022/07/22 02:20:48;;;;;;;3.80;2.87;;;27.50;86.40;;;;;;5146619;27;20496;-63
2022/07/22 02:23:24;;;;;;;3.17;2.87;;;27.50;87.40;;;;;;5142651;27;20524;-62
2022/07/22 02:25:55;;;;;;;3.10;2.90;;;27.50;86.70;;;;;;5147336;27;20480;-63
2022/07/22 02:28:26;;;;;;;4.10;2.90;;;27.40;87.00;;;;;;5152649;27;20470;-62
2022/07/22 02:31:00;;;;;;;3.77;3.17;;;27.40;87.40;;;;;;5151221;27;20464;-62
2022/07/22 02:33:34;;;;;;;3.37;2.43;;;27.40;87.90;;;;;;5154362;27;20477;-61
2022/07/22 02:36:09;;;;;;;2.20;2.10;;;27.40;86.40;;;;;;5146972;27;20555;-61
2022/07/22 02:38:49;;;;;;;2.93;2.40;;;27.40;86.40;;;;;;5144284;27;20484;-61
2022/07/22 02:41:19;;;;;;;2.87;2.40;;;27.30;86.90;;;;;;5148584;27;20810;-61
2022/07/22 02:43:53;;;;;;;3.67;2.40;;;27.10;87.40;;;;;;5149020;27;20469;-62
2022/07/22 02:46:24;;;;;;;3.30;2.83;;;27.20;87.60;;;;;;5142779;27;20485;-62
2022/07/22 02:48:56;;;;;;;2.43;2.20;;;27.10;88.00;;;;;;5146546;27;20472;-62
2022/07/22 02:51:27;;;;;;;2.57;2.37;;;27.00;88.00;;;;;;5147139;27;20473;-62
2022/07/22 02:53:59;;;;;;;3.60;2.40;;;27.00;87.50;;;;;;5147152;27;20836;-63
2022/07/22 02:56:30;;;;;;;2.40;2.20;;;26.90;87.80;;;;;;5135966;27;20452;-63
2022/07/22 02:59:01;;;;;;;3.07;2.53;;;26.80;88.50;;;;;;5155534;27;20459;-63
2022/07/22 03:01:31;;;;;;;4.50;3.30;;;26.70;88.80;;;;;;5150155;27;20485;-63
2022/07/22 03:04:02;;;;;;;1.73;1.63;;;26.60;88.80;;;;;;5143524;27;20883;-64
2022/07/22 03:06:33;;;;;;;2.20;2.00;;;26.40;88.10;;;;;;5138342;27;20477;-62
2022/07/22 03:09:06;;;;;;;2.90;2.57;;;26.30;89.40;;;;;;5149887;27;22215;-63
2022/07/22 03:11:36;;;;;;;3.87;2.87;;;26.20;89.30;;;;;;5142142;27;20463;-63
2022/07/22 03:14:08;;;;;;;2.60;2.40;;;26.10;89.60;;;;;;5165504;27;20449;-63
2022/07/22 03:16:39;;;;;;;3.00;2.70;;;25.90;90.40;;;;;;5166004;27;20434;-63
2022/07/22 03:19:10;;;;;;;3.30;3.00;;;25.70;90.60;;;;;;5147575;27;20440;-63
2022/07/22 03:21:41;;;;;;;2.13;2.00;;;25.70;91.00;;;;;;5150288;27;20501;-63
2022/07/22 03:24:13;;;;;;;4.97;2.50;;;25.60;90.70;;;;;;5145878;27;20832;-63
2022/07/22 03:26:44;;;;;;;2.90;2.63;;;25.50;90.70;;;;;;5145233;27;20902;-63
2022/07/22 03:29:15;;;;;;;2.97;2.37;;;25.30;90.90;;;;;;5145163;27;20762;-62
2022/07/22 03:31:45;;;;;;;3.17;2.50;;;25.10;91.20;;;;;;5145261;27;20770;-64
2022/07/22 03:34:16;;;;;;;2.53;2.33;;;25.00;91.60;;;;;;5146808;27;22053;-63
2022/07/22 03:36:47;;;;;;;2.37;2.17;;;24.80;91.70;;;;;;5143289;27;20460;-63
2022/07/22 03:39:19;;;;;;;3.00;2.67;;;24.70;91.90;;;;;;5142765;27;20466;-62
2022/07/22 03:41:50;;;;;;;2.77;2.10;;;24.60;92.10;;;;;;5142633;27;20480;-62
2022/07/22 03:44:21;;;;;;;3.23;2.50;;;24.40;92.30;;;;;;5150417;27;20452;-62
2022/07/22 03:46:55;;;;;;;2.17;1.97;;;24.40;92.40;;;;;;5163117;27;20477;-62
2022/07/22 03:49:29;;;;;;;2.10;1.90;;;24.30;92.70;;;;;;5149125;27;20513;-62
2022/07/22 03:52:03;;;;;;;2.50;2.17;;;24.10;93.00;;;;;;5158591;27;20447;-61
2022/07/22 03:54:37;;;;;;;2.43;2.23;;;24.00;93.30;;;;;;5155023;27;20544;-62
2022/07/22 03:57:08;;;;;;;2.60;2.40;;;23.90;93.40;;;;;;5148674;27;20448;-62
2022/07/22 03:59:39;;;;;;;2.47;2.07;;;23.80;94.00;;;;;;5156361;27;20444;-62
2022/07/22 04:02:10;;;;;;;2.43;2.27;;;23.70;93.90;;;;;;5148781;27;20505;-62
2022/07/22 04:04:41;;;;;;;3.10;2.33;;;23.60;94.00;;;;;;5162234;27;20455;-61
2022/07/22 04:07:17;;;;;;;2.03;1.67;;;23.50;94.20;;;;;;5141878;27;20451;-62
2022/07/22 04:09:49;;;;;;;4.60;2.87;;;23.50;94.50;;;;;;5149879;27;20448;-61
2022/07/22 04:12:20;;;;;;;2.27;2.07;;;23.30;94.60;;;;;;5144721;27;20463;-61
2022/07/22 04:14:51;;;;;;;2.90;2.10;;;23.20;95.10;;;;;;5147881;27;20483;-62
2022/07/22 04:17:22;;;;;;;2.40;2.20;;;23.10;95.10;;;;;;5147410;27;20448;-62
2022/07/22 04:19:53;;;;;;;2.07;1.87;;;22.90;95.80;;;;;;5149733;27;20428;-62
2022/07/22 04:22:24;;;;;;;2.80;2.53;;;22.90;96.30;;;;;;5163891;27;20483;-63
2022/07/22 04:24:58;;;;;;;2.53;1.90;;;22.70;96.20;;;;;;5163869;27;20448;-63
2022/07/22 04:27:29;;;;;;;2.70;2.50;;;22.70;96.50;;;;;;5158401;27;20455;-63
2022/07/22 04:30:00;;;;;;;3.90;2.03;;;22.60;96.20;;;;;;5150124;27;20449;-63
2022/07/22 04:32:33;;;;;;;3.10;1.90;;;22.50;96.40;;;;;;5149308;27;20440;-63
2022/07/22 04:35:04;;;;;;;2.87;1.87;;;22.30;96.80;;;;;;5146175;27;20458;-63
2022/07/22 04:37:35;;;;;;;2.23;1.67;;;22.20;97.30;;;;;;5147396;27;20558;-64
2022/07/22 04:40:09;;;;;;;3.27;2.47;;;22.10;97.60;;;;;;5148555;27;20455;-63
2022/07/22 04:42:40;;;;;;;1.80;1.70;;;22.00;97.50;;;;;;5147286;27;20491;-64
2022/07/22 04:45:11;;;;;;;2.00;1.73;;;21.80;98.20;;;;;;5141626;27;20461;-65
2022/07/22 04:47:42;;;;;;;6.93;2.17;;;21.70;98.80;;;;;;5150535;27;20471;-64
2022/07/22 04:50:13;;;;;;;1.80;1.70;;;21.60;98.80;;;;;;5145236;27;20470;-65
2022/07/22 04:52:51;;;;;;;1.53;1.43;;;21.50;99.10;;;;;;5147549;27;21637;-64
2022/07/22 04:55:25;;;;;;;1.73;1.63;;;21.50;99.40;;;;;;5154405;27;20444;-64
2022/07/22 04:57:56;;;;;;;2.07;1.60;;;21.40;99.40;;;;;;5144974;27;20844;-65
2022/07/22 05:00:27;;;;;;;2.73;2.10;;;21.30;99.80;;;;;;5145472;27;20437;-63
2022/07/22 05:02:58;;;;;;;2.10;1.90;;;21.20;99.90;;;;;;5150673;27;20447;-64
2022/07/22 05:05:29;;;;;;;3.90;1.77;;;21.10;99.90;;;;;;5150252;27;20444;-64
2022/07/22 05:08:02;;;;;;;2.07;1.63;;;21.10;99.90;;;;;;5147383;27;20480;-64
2022/07/22 05:10:37;;;;;;;4.20;2.50;;;21.00;99.90;;;;;;5150055;27;20444;-64
2022/07/22 05:13:08;;;;;;;2.17;1.97;;;20.90;99.90;;;;;;5147126;27;20450;-63
2022/07/22 05:15:39;;;;;;;3.50;2.00;;;20.80;99.90;;;;;;5145756;27;20450;-64
2022/07/22 05:18:19;;;;;;;3.37;1.70;;;20.80;99.90;;;;;;5146266;27;20444;-66
2022/07/22 05:20:50;;;;;;;1.83;1.73;;;20.70;99.90;;;;;;5150783;27;20602;-64
2022/07/22 05:23:23;;;;;;;3.03;2.73;;;20.50;99.90;;;;;;5148326;27;20448;-64
2022/07/22 05:25:55;;;;;;;2.53;2.33;;;20.60;99.90;;;;;;5143496;27;20461;-63
2022/07/22 05:28:32;;;;;;;1.87;1.77;;;20.50;99.90;;;;;;5146315;27;20423;-63
2022/07/22 05:31:03;;;;;;;2.27;2.07;;;20.50;99.90;;;;;;5143409;27;20427;-64
2022/07/22 05:33:39;;;;;;;2.07;1.97;;;20.30;99.90;;;;;;5144390;27;20479;-64
2022/07/22 05:36:12;;;;;;;2.23;2.03;;;20.30;99.90;;;;;;5146336;27;20433;-64
2022/07/22 05:38:49;;;;;;;2.17;1.97;;;20.20;99.90;;;;;;5144625;27;20445;-64
2022/07/22 05:41:24;;;;;;;2.00;1.80;;;20.10;99.90;;;;;;5163712;27;20438;-64
2022/07/22 05:43:55;;;;;;;2.10;1.90;;;20.10;99.90;;;;;;5163036;27;20440;-63
2022/07/22 05:46:32;;;;;;;1.50;1.40;;;20.10;99.90;;;;;;5163795;27;20521;-64
2022/07/22 05:49:06;;;;;;;2.63;1.50;;;20.20;99.90;;;;;;5156468;27;20428;-63
2022/07/22 05:52:02;;;;;;;3.33;1.90;;;20.00;99.90;;;;;;5163344;27;20938;-64
2022/07/22 05:54:33;;;;;;;2.90;1.90;;;20.00;99.90;;;;;;5163551;27;20851;-64
2022/07/22 05:59:52;;;;;;;1.70;1.60;;;20.00;99.90;;;;;;5151086;27;20445;-64
2022/07/22 06:02:23;;;;;;;2.23;1.90;;;20.00;99.90;;;;;;5162341;27;20469;-64
2022/07/22 06:05:10;;;;;;;2.33;2.13;;;19.90;99.90;;;;;;5129070;27;20452;-64
2022/07/22 06:08:05;;;;;;;2.20;1.60;;;19.90;99.90;;;;;;5157460;27;20473;-64
2022/07/22 06:10:35;;;;;;;1.90;1.80;;;19.90;99.90;;;;;;5151088;27;21019;-64
2022/07/22 06:13:10;;;;;;;2.20;1.77;;;19.80;99.90;;;;;;5133065;27;20491;-64
2022/07/22 06:15:49;;;;;;;2.10;1.87;;;19.80;99.90;;;;;;5157128;27;20420;-64
2022/07/22 06:18:25;;;;;;;3.17;1.50;;;19.80;99.90;;;;;;5150326;27;20458;-64
2022/07/22 06:20:56;;;;;;;1.67;1.33;;;19.90;99.90;;;;;;5156307;27;20426;-64
2022/07/22 06:23:26;;;;;;;2.40;1.60;;;20.00;99.90;;;;;;5134650;27;20432;-65
2022/07/22 06:25:59;;;;;;;1.90;1.60;;;19.80;99.90;;;;;;5146552;27;20452;-64
2022/07/22 06:28:35;;;;;;;1.77;1.57;;;19.80;99.90;;;;;;5152338;27;20531;-64
2022/07/22 06:31:10;;;;;;;1.90;1.37;;;19.90;99.90;;;;;;5158322;27;20440;-64
2022/07/22 06:33:46;;;;;;;1.57;1.47;;;19.90;99.90;;;;;;5147375;27;20443;-63
2022/07/22 06:36:17;;;;;;;1.20;1.10;;;19.90;99.90;;;;;;5146113;27;20459;-64
2022/07/22 06:38:48;;;;;;;1.90;1.37;;;19.80;99.90;;;;;;5152858;27;20476;-63
2022/07/22 06:41:20;;;;;;;1.60;1.50;;;19.70;99.90;;;;;;5142979;27;20452;-63
2022/07/22 06:43:52;;;;;;;1.60;1.50;;;19.70;99.90;;;;;;5151712;27;20419;-63
2022/07/22 06:46:30;;;;;;;1.80;1.50;;;19.70;99.90;;;;;;5151554;27;20510;-63
2022/07/22 06:49:07;;;;;;;1.40;1.30;;;19.70;99.90;;;;;;5145330;27;20578;-63
2022/07/22 06:51:44;;;;;;;1.17;1.07;;;19.50;99.90;;;;;;5154829;27;20538;-63
2022/07/22 06:54:17;;;;;;;1.50;1.30;;;19.50;99.90;;;;;;5144877;27;20492;-63
2022/07/22 06:56:53;;;;;;;1.77;1.20;;;19.50;99.90;;;;;;5152559;27;20423;-63
2022/07/22 06:59:26;;;;;;;1.40;1.30;;;19.30;99.90;;;;;;5146577;27;20447;-63
2022/07/22 07:01:57;;;;;;;1.33;1.10;;;19.30;99.90;;;;;;5153116;27;20437;-63
2022/07/22 07:04:28;;;;;;;1.23;0.80;;;19.20;99.90;;;;;;5150706;27;20472;-63
2022/07/22 07:07:06;;;;;;;1.33;1.17;;;19.00;99.90;;;;;;5155631;27;20525;-63
2022/07/22 07:09:41;;;;;;;0.97;0.80;;;18.90;99.90;;;;;;5167038;27;20450;-63
2022/07/22 07:12:13;;;;;;;1.50;1.20;;;18.90;99.90;;;;;;5150362;27;20446;-63
2022/07/22 07:14:48;;;;;;;1.47;1.37;;;18.80;99.90;;;;;;5146979;27;20477;-63
2022/07/22 07:17:40;;;;;;;1.20;1.10;;;18.80;99.90;;;;;;5153107;27;20444;-63
2022/07/22 07:20:13;;;;;;;1.13;1.00;;;18.70;99.90;;;;;;5146176;27;20452;-63
2022/07/22 07:22:45;;;;;;;1.30;1.20;;;18.70;99.90;;;;;;5148197;27;20451;-63
2022/07/22 07:25:19;;;;;;;1.13;1.03;;;18.60;99.90;;;;;;5147498;27;20434;-63
2022/07/22 07:27:56;;;;;;;1.20;1.10;;;18.50;99.90;;;;;;5148669;27;20437;-63
2022/07/22 07:30:31;;;;;;;1.10;0.97;;;18.50;99.90;;;;;;5158472;27;20426;-63
2022/07/22 07:33:06;;;;;;;1.43;1.10;;;18.50;99.90;;;;;;5139045;27;20472;-63
2022/07/22 07:35:37;;;;;;;0.87;0.87;;;18.50;99.90;;;;;;5155973;27;20444;-63
2022/07/22 07:38:08;;;;;;;1.03;0.87;;;18.40;99.90;;;;;;5147261;27;20445;-63
2022/07/22 07:40:39;;;;;;;1.00;0.93;;;18.40;99.90;;;;;;5139942;27;20518;-63
2022/07/22 07:43:10;;;;;;;0.87;0.83;;;18.40;99.90;;;;;;5163555;27;20432;-63
2022/07/22 07:45:45;;;;;;;1.10;1.00;;;18.30;99.90;;;;;;5160885;27;20424;-63
2022/07/22 07:48:16;;;;;;;0.83;0.80;;;18.30;99.90;;;;;;5149678;27;20465;-63
2022/07/22 07:50:47;;;;;;;1.67;1.20;;;18.20;99.90;;;;;;5166128;27;20746;-63
2022/07/22 07:53:18;;;;;;;1.03;0.70;;;18.20;99.90;;;;;;5146042;27;20511;-63
2022/07/22 07:55:49;;;;;;;1.63;0.87;;;18.10;99.90;;;;;;5151550;27;20462;-63
2022/07/22 07:58:20;;;;;;;2.30;1.17;;;18.10;99.90;;;;;;5163768;27;20426;-63
2022/07/22 08:00:56;;;;;;;1.63;1.10;;;18.10;99.90;;;;;;5145686;27;20445;-63
2022/07/22 08:03:27;;;;;;;1.27;0.97;;;18.00;99.90;;;;;;5155133;27;20780;-63
2022/07/22 08:06:01;;;;;;;1.27;0.60;;;18.00;99.90;;;;;;5164147;27;20456;-63
2022/07/22 08:08:32;;;;;;;1.00;0.70;;;18.00;99.90;;;;;;5156098;27;20437;-63
2022/07/22 08:11:09;;;;;;;0.80;0.70;;;18.00;99.90;;;;;;5149189;27;20411;-63
2022/07/22 08:13:44;;;;;;;1.10;0.70;;;18.10;99.90;;;;;;5145041;27;20484;-63
2022/07/22 08:16:16;;;;;;;0.70;0.70;;;18.10;99.90;;;;;;5145183;27;20456;-62
2022/07/22 08:18:50;;;;;;;0.97;0.70;;;18.20;99.90;;;;;;5150678;27;20418;-63
2022/07/22 08:21:34;;;;;;;0.80;0.40;;;18.20;99.90;;;;;;5141971;27;20488;-63
2022/07/22 08:24:06;;;;;;;1.90;1.00;;;18.20;99.90;;;;;;5165152;27;20919;-63
2022/07/22 08:26:41;;;;;;;1.00;0.40;;;18.20;99.90;;;;;;5165321;27;20418;-63
2022/07/22 08:29:17;;;;;;;1.00;0.90;;;18.30;99.90;;;;;;5164479;27;20471;-63
2022/07/22 08:31:59;;;;;;;0.80;0.70;;;18.30;99.90;;;;;;5148752;27;20473;-63
2022/07/22 08:34:36;;;;;;;0.50;0.47;;;18.30;99.90;;;;;;5163577;27;20465;-62
2022/07/22 08:37:09;;;;;;;0.60;0.60;;;18.30;99.90;;;;;;5164227;27;20507;-63
2022/07/22 08:39:40;;;;;;;1.20;0.47;;;18.30;99.90;;;;;;5151344;27;20461;-63
2022/07/22 08:42:13;;;;;;;0.60;0.60;;;18.30;99.90;;;;;;5143193;27;20493;-63
2022/07/22 08:44:56;;;;;;;0.50;0.40;;;18.40;99.90;;;;;;5147191;27;20552;-63
2022/07/22 08:47:39;;;;;;;0.80;0.80;;;18.40;99.90;;;;;;5147887;27;20556;-62
2022/07/22 08:50:13;;;;;;;0.60;0.60;;;18.30;99.90;;;;;;5150683;27;20445;-63
2022/07/22 08:52:44;;;;;;;0.70;0.70;;;18.40;99.90;;;;;;5143643;27;20428;-62
2022/07/22 08:55:23;;;;;;;0.70;0.60;;;18.30;99.90;;;;;;5148736;27;20458;-62
2022/07/22 08:58:01;;;;;;;1.67;0.60;;;18.30;99.90;;;;;;5142169;27;20461;-62
2022/07/22 09:00:34;;;;;;;1.27;0.60;;;18.30;99.90;;;;;;5148174;27;20448;-63
2022/07/22 09:03:22;;;;;;;0.57;0.47;;;18.30;99.90;;;;;;5151397;27;20451;-63
2022/07/22 09:05:54;;;;;;;0.57;0.57;;;18.30;99.90;;;;;;5148225;27;20410;-62
2022/07/22 09:08:28;;;;;;;0.80;0.50;;;18.30;99.90;;;;;;5148763;27;20806;-62
2022/07/22 09:11:06;;;;;;;0.50;0.40;;;18.20;99.90;;;;;;5143825;27;20452;-63
2022/07/22 09:13:41;;;;;;;0.80;0.50;;;18.20;99.90;;;;;;5143498;27;20565;-63
2022/07/22 09:16:12;;;;;;;0.63;0.40;;;18.20;99.90;;;;;;5147490;27;20427;-62
2022/07/22 09:18:54;;;;;;;1.03;0.60;;;18.20;99.90;;;;;;5147876;27;20458;-63
2022/07/22 09:21:34;;;;;;;0.40;0.40;;;18.20;99.90;;;;;;5147086;27;20511;-62
2022/07/22 09:24:06;;;;;;;1.00;0.40;;;18.20;99.90;;;;;;5147644;27;20412;-63
2022/07/22 09:26:41;;;;;;;0.83;0.40;;;18.20;99.90;;;;;;5158373;27;20515;-62
2022/07/22 09:29:18;;;;;;;0.70;0.40;;;18.30;99.90;;;;;;5161999;27;20419;-63
2022/07/22 09:31:53;;;;;;;0.70;0.60;;;18.20;99.90;;;;;;5160539;27;20434;-62
2022/07/22 09:34:34;;;;;;;0.60;0.50;;;18.30;99.90;;;;;;5142906;27;20479;-62
2022/07/22 09:37:16;;;;;;;0.67;0.60;;;18.20;99.90;;;;;;5142850;27;20431;-62
2022/07/22 09:39:47;;;;;;;0.63;0.60;;;18.20;99.90;;;;;;5147249;27;21124;-63
2022/07/22 09:42:21;;;;;;;1.17;0.40;;;18.20;99.90;;;;;;5162829;27;20873;-63
2022/07/22 09:44:58;;;;;;;0.60;0.50;;;18.20;99.90;;;;;;5164203;27;20452;-62
2022/07/22 09:47:32;;;;;;;1.10;0.70;;;18.10;99.90;;;;;;5160360;27;20495;-62
2022/07/22 09:50:24;;;;;;;0.73;0.53;;;18.10;99.90;;;;;;5131590;27;20492;-62
2022/07/22 09:52:56;;;;;;;0.53;0.53;;;18.10;99.90;;;;;;5131314;27;20454;-63
2022/07/22 09:55:38;;;;;;;0.80;0.50;;;18.10;99.90;;;;;;5156402;27;20458;-63
2022/07/22 09:58:09;;;;;;;0.70;0.50;;;18.10;99.90;;;;;;5147600;27;20974;-63
2022/07/22 10:00:41;;;;;;;0.70;0.47;;;18.20;99.90;;;;;;5147456;27;20508;-63
2022/07/22 10:03:18;;;;;;;1.17;0.40;;;18.20;99.90;;;;;;5149634;27;20464;-63
2022/07/22 10:05:55;;;;;;;0.40;0.30;;;18.20;99.90;;;;;;5159789;27;20454;-63
2022/07/22 10:08:28;;;;;;;0.93;0.63;;;18.20;99.90;;;;;;5143193;27;20419;-63
2022/07/22 10:11:02;;;;;;;0.83;0.63;;;18.10;99.90;;;;;;5136023;27;20445;-63
2022/07/22 10:13:37;;;;;;;0.60;0.47;;;18.10;99.90;;;;;;5164212;27;20559;-63
2022/07/22 10:16:11;;;;;;;0.60;0.40;;;18.10;99.90;;;;;;5160861;27;20949;-63
2022/07/22 10:18:50;;;;;;;1.00;0.53;;;18.10;99.90;;;;;;5158450;27;20506;-63
2022/07/22 10:21:37;;;;;;;1.27;0.50;;;18.10;99.90;;;;;;5156457;27;20490;-63
2022/07/22 10:24:13;;;;;;;0.50;0.40;;;18.00;99.90;;;;;;5162616;27;20450;-63
2022/07/22 10:26:53;;;;;;;0.50;0.40;;;18.10;99.90;;;;;;5162473;27;20455;-63
2022/07/22 10:29:47;;;;;;;0.70;0.63;;;18.10;99.90;;;;;;5162006;27;20528;-63
2022/07/22 10:32:37;;;;;;;0.57;0.50;;;18.10;99.90;;;;;;5152684;27;20447;-63
2022/07/22 10:35:27;;;;;;;0.53;0.50;;;18.10;99.90;;;;;;5147738;27;20508;-63
2022/07/22 10:38:13;;;;;;;0.73;0.50;;;18.10;99.90;;;;;;5145493;27;20517;-63
2022/07/22 10:40:52;;;;;;;0.90;0.33;;;18.00;99.90;;;;;;5144376;27;20467;-63
2022/07/22 10:43:27;;;;;;;0.63;0.60;;;18.00;99.90;;;;;;5143402;27;20411;-63
2022/07/22 10:45:59;;;;;;;1.33;0.33;;;18.00;99.90;;;;;;5156238;27;20436;-63
2022/07/22 10:48:48;;;;;;;0.50;0.30;;;18.00;99.90;;;;;;5150847;27;20446;-62
2022/07/22 10:51:22;;;;;;;0.40;0.30;;;18.10;99.90;;;;;;5147487;27;20427;-63
2022/07/22 10:54:02;;;;;;;0.43;0.30;;;18.00;99.90;;;;;;5149619;27;20448;-63
2022/07/22 10:56:38;;;;;;;0.30;0.20;;;17.90;99.90;;;;;;5149619;27;20458;-62
2022/07/22 10:59:14;;;;;;;0.70;0.40;;;18.00;99.90;;;;;;5157766;27;20465;-63
2022/07/22 11:01:49;;;;;;;0.40;0.30;;;18.00;99.90;;;;;;5167077;27;20410;-63
2022/07/22 11:04:26;;;;;;;0.80;0.50;;;18.00;99.90;;;;;;5164949;27;20457;-63
2022/07/22 11:07:02;;;;;;;0.40;0.30;;;17.90;99.90;;;;;;5148952;27;20946;-63
2022/07/22 11:09:40;;;;;;;0.50;0.50;;;18.00;99.90;;;;;;5146099;27;20464;-63
2022/07/22 11:12:17;;;;;;;0.70;0.40;;;18.00;99.90;;;;;;5151432;27;20472;-63
2022/07/22 11:14:47;;;;;;;0.90;0.50;;;18.00;99.90;;;;;;5147354;27;20488;-63
2022/07/22 11:17:32;;;;;;;0.43;0.33;;;17.90;99.90;;;;;;5152052;27;20457;-63
2022/07/22 11:20:12;;;;;;;0.50;0.30;;;17.90;99.90;;;;;;5147256;27;20423;-63
2022/07/22 11:22:48;;;;;;;0.40;0.30;;;18.00;99.90;;;;;;5153979;27;20457;-62
2022/07/22 11:25:37;;;;;;;0.40;0.30;;;17.90;99.90;;;;;;5150446;27;20413;-63
2022/07/22 11:28:16;;;;;;;0.40;0.30;;;17.80;99.90;;;;;;5146400;27;20445;-62
2022/07/22 11:31:07;;;;;;;0.40;0.30;;;18.00;99.90;;;;;;5141259;27;20503;-63
2022/07/22 11:33:38;;;;;;;0.50;0.40;;;18.00;99.90;;;;;;5165812;27;20985;-62
2022/07/22 11:36:11;;;;;;;0.40;0.30;;;17.90;99.90;;;;;;5154168;27;20578;-62
2022/07/22 11:38:52;;;;;;;1.03;0.20;;;17.90;99.90;;;;;;5145873;27;20508;-62
2022/07/22 11:41:31;;;;;;;0.67;0.50;;;17.90;99.90;;;;;;5154287;27;20500;-63
2022/07/22 11:44:03;;;;;;;0.40;0.30;;;17.90;99.90;;;;;;5166563;27;20500;-63
2022/07/22 11:46:44;;;;;;;0.47;0.40;;;17.90;99.90;;;;;;5154675;27;20454;-63
2022/07/22 11:49:16;;;;;;;0.50;0.50;;;17.90;99.90;;;;;;5165869;27;20452;-63
2022/07/22 11:51:47;;;;;;;0.40;0.40;;;17.80;99.90;;;;;;5165201;27;20429;-63
2022/07/22 11:54:19;;;;;;;0.50;0.30;;;17.80;99.90;;;;;;5166384;27;20437;-63
2022/07/22 11:57:03;;;;;;;0.30;0.30;;;17.80;99.90;;;;;;5148957;27;20784;-63
2022/07/22 11:59:38;;;;;;;0.63;0.43;;;17.90;99.90;;;;;;5146187;27;20911;-63
2022/07/22 12:02:13;;;;;;;0.40;0.33;;;17.90;99.90;;;;;;5145778;27;20442;-64
2022/07/22 12:04:49;;;;;;;0.60;0.40;;;17.90;99.90;;;;;;5104714;28;20450;-63
2022/07/22 12:07:38;;;;;;;0.40;0.20;;;17.80;99.90;;;;;;5087929;28;20446;-64
2022/07/22 12:10:10;;;;;;;0.43;0.40;;;17.80;99.90;;;;;;5116543;28;20421;-63
2022/07/22 12:12:57;;;;;;;0.30;0.30;;;17.70;99.90;;;;;;5106680;28;20479;-63
2022/07/22 12:15:31;;;;;;;0.63;0.60;;;17.70;99.90;;;;;;5118186;28;20457;-64
2022/07/22 12:18:24;;;;;;;0.50;0.30;;;17.70;99.90;;;;;;5105257;28;20446;-64
2022/07/22 12:20:56;;;;;;;0.40;0.30;;;17.80;99.90;;;;;;5103213;28;20450;-64
2022/07/22 12:23:28;;;;;;;0.80;0.60;;;17.80;99.90;;;;;;5104453;28;20438;-63
2022/07/22 12:26:00;;;;;;;1.03;0.30;;;17.90;99.90;;;;;;5113527;28;20449;-63
2022/07/22 12:28:35;;;;;;;0.70;0.60;;;17.90;99.90;;;;;;5123461;27;20454;-64
2022/07/22 12:31:06;;;;;;;0.40;0.30;;;17.70;99.90;;;;;;5101728;28;20942;-63
2022/07/22 12:33:50;;;;;;;0.30;0.30;;;17.70;99.90;;;;;;5103689;28;20450;-64
2022/07/22 12:36:20;;;;;;;0.70;0.47;;;17.60;99.90;;;;;;5107266;28;20557;-63
2022/07/22 12:38:51;;;;;;;0.47;0.37;;;17.60;99.90;;;;;;5122226;28;20528;-63
2022/07/22 12:41:27;;;;;;;0.80;0.47;;;17.50;99.90;;;;;;5090096;28;20416;-66
2022/07/22 12:44:04;;;;;;;0.70;0.70;;;17.60;99.90;;;;;;5115523;28;20464;-64
2022/07/22 12:46:45;;;;;;;0.60;0.50;;;17.70;99.90;;;;;;5103579;28;20425;-64
2022/07/22 12:49:20;;;;;;;0.40;0.40;;;17.60;99.90;;;;;;5103728;28;20451;-63
2022/07/22 12:52:13;;;;;;;0.40;0.30;;;17.60;99.90;;;;;;5102430;28;20509;-63
2022/07/22 12:54:43;;;;;;;0.40;0.40;;;17.60;99.90;;;;;;5104098;28;20520;-63
2022/07/22 12:57:20;;;;;;;0.53;0.47;;;17.50;99.90;;;;;;5108053;28;20476;-63
2022/07/22 12:59:59;;;;;;;0.70;0.40;;;17.50;99.90;;;;;;5102621;28;20439;-63
2022/07/22 13:02:30;;;;;;;0.40;0.40;;;17.50;99.90;;;;;;5115142;27;21203;-65
2022/07/22 13:05:00;;;;;;;1.13;0.40;;;17.60;99.90;;;;;;5151175;27;20447;-63
2022/07/22 13:07:31;;;;;;;0.60;0.50;;;17.60;99.90;;;;;;5148903;27;20446;-63
2022/07/22 13:10:08;;;;;;;0.60;0.40;;;17.60;99.90;;;;;;5145130;27;20491;-63
2022/07/22 13:12:39;;;;;;;0.60;0.50;;;17.70;99.90;;;;;;5150352;27;20473;-63
2022/07/22 13:15:12;;;;;;;0.57;0.50;;;17.70;99.90;;;;;;5150634;27;20494;-63
2022/07/22 13:17:48;;;;;;;0.80;0.50;;;17.60;99.90;;;;;;5149156;27;20467;-63
2022/07/22 13:20:20;;;;;;;0.50;0.40;;;17.60;99.90;;;;;;5145556;27;20434;-62
2022/07/22 13:22:53;;;;;;;0.40;0.30;;;17.50;99.90;;;;;;5143088;27;20449;-63
2022/07/22 13:25:27;;;;;;;0.43;0.43;;;17.60;99.90;;;;;;5146333;27;20507;-63
2022/07/22 13:28:00;;;;;;;0.60;0.40;;;17.60;99.90;;;;;;5147251;27;20467;-63